KCRE/CRE METAR and TAF weather

Enter ICAO airport designator
Station Type Date Time Source
KCRE METAR 2019/06/26 20:53 UTC NOAA

KCRE 262053Z 35003KT 10SM CLR 32/18 A3007 RMK AO1 SLP183 T03170183 55007


Station Type Date Time Source
KCRE Decoded METAR 2019/06/26 20:53 UTC NOAA

N. MYRTLE BCH.GRAND STRAND, SC, United States (KCRE) 33-49N 078-43W 10M
Jun 26, 2019 - 04:53 PM EDT / 2019.06.26 2053 UTC
Wind: from the N (350 degrees) at 3 MPH (3 KT):0
Visibility: 10 mile(s):0
Sky conditions: clear
Temperature: 89.1 F (31.7 C)
Dew Point: 64.9 F (18.3 C)
Relative Humidity: 44%
Pressure (altimeter): 30.07 in. Hg (1018 hPa)
Pressure tendency: 0.02 inches (0.7 hPa) lower than three hours ago
ob: KCRE 262053Z 35003KT 10SM CLR 32/18 A3007 RMK AO1 SLP183 T03170183 55007
cycle: 21

Station Type Date Time Source
KCRE TAF 2019/06/26 18:30 UTC NOAA

TAF KCRE 261727Z 2618/2718 14005KT P6SM SKC
FM270200 VRB03KT P6SM SCT200
FM271400 12007KT P6SM SCT200

Example: see airport list